sensor_id;sensor_type;location;lat;lon;timestamp;P1;durP1;ratioP1;P2;durP2;ratioP2
38637;SDS011;24401;53.034;-3.030;2023-04-28T00:00:07;19.10;;;15.97;;
38637;SDS011;24401;53.034;-3.030;2023-04-28T00:02:37;18.37;;;16.53;;
38637;SDS011;24401;53.034;-3.030;2023-04-28T00:05:08;19.13;;;16.97;;
38637;SDS011;24401;53.034;-3.030;2023-04-28T00:07:38;18.90;;;16.97;;
38637;SDS011;24401;53.034;-3.030;2023-04-28T00:10:09;20.63;;;17.23;;
38637;SDS011;24401;53.034;-3.030;2023-04-28T00:12:39;23.60;;;16.57;;
38637;SDS011;24401;53.034;-3.030;2023-04-28T00:15:09;24.60;;;18.17;;
38637;SDS011;24401;53.034;-3.030;2023-04-28T00:17:40;19.27;;;17.50;;
38637;SDS011;24401;53.034;-3.030;2023-04-28T00:20:10;18.70;;;16.87;;
38637;SDS011;24401;53.034;-3.030;2023-04-28T00:22:41;19.63;;;17.47;;
38637;SDS011;24401;53.034;-3.030;2023-04-28T00:25:11;22.83;;;18.10;;
38637;SDS011;24401;53.034;-3.030;2023-04-28T00:27:41;19.43;;;17.40;;
38637;SDS011;24401;53.034;-3.030;2023-04-28T00:30:12;21.93;;;18.30;;
38637;SDS011;24401;53.034;-3.030;2023-04-28T00:32:42;19.80;;;17.57;;
38637;SDS011;24401;53.034;-3.030;2023-04-28T00:35:12;21.87;;;18.87;;
38637;SDS011;24401;53.034;-3.030;2023-04-28T00:37:42;24.27;;;18.07;;
38637;SDS011;24401;53.034;-3.030;2023-04-28T00:40:13;20.80;;;18.50;;
38637;SDS011;24401;53.034;-3.030;2023-04-28T00:42:43;21.90;;;18.07;;
38637;SDS011;24401;53.034;-3.030;2023-04-28T00:45:13;18.80;;;17.00;;
38637;SDS011;24401;53.034;-3.030;2023-04-28T00:47:43;21.37;;;18.43;;
38637;SDS011;24401;53.034;-3.030;2023-04-28T00:50:13;21.30;;;18.77;;
38637;SDS011;24401;53.034;-3.030;2023-04-28T00:52:45;22.83;;;18.38;;
38637;SDS011;24401;53.034;-3.030;2023-04-28T00:55:16;24.10;;;18.27;;
38637;SDS011;24401;53.034;-3.030;2023-04-28T00:57:46;26.43;;;18.40;;
38637;SDS011;24401;53.034;-3.030;2023-04-28T01:00:16;25.77;;;18.43;;
38637;SDS011;24401;53.034;-3.030;2023-04-28T01:02:47;21.20;;;18.40;;
38637;SDS011;24401;53.034;-3.030;2023-04-28T01:05:17;19.67;;;17.77;;
38637;SDS011;24401;53.034;-3.030;2023-04-28T01:07:47;22.53;;;17.80;;
38637;SDS011;24401;53.034;-3.030;2023-04-28T01:10:17;22.80;;;18.53;;
38637;SDS011;24401;53.034;-3.030;2023-04-28T01:12:48;21.17;;;18.77;;
38637;SDS011;24401;53.034;-3.030;2023-04-28T01:15:18;20.63;;;17.87;;
38637;SDS011;24401;53.034;-3.030;2023-04-28T01:17:49;19.30;;;17.25;;
38637;SDS011;24401;53.034;-3.030;2023-04-28T01:20:20;28.03;;;18.03;;
38637;SDS011;24401;53.034;-3.030;2023-04-28T01:22:50;18.00;;;16.23;;
38637;SDS011;24401;53.034;-3.030;2023-04-28T01:25:20;19.73;;;17.07;;
38637;SDS011;24401;53.034;-3.030;2023-04-28T01:27:50;19.53;;;17.70;;
38637;SDS011;24401;53.034;-3.030;2023-04-28T01:30:21;21.00;;;17.20;;
38637;SDS011;24401;53.034;-3.030;2023-04-28T01:32:51;19.53;;;17.57;;
38637;SDS011;24401;53.034;-3.030;2023-04-28T01:35:22;20.63;;;18.47;;
38637;SDS011;24401;53.034;-3.030;2023-04-28T01:37:52;21.90;;;16.87;;
38637;SDS011;24401;53.034;-3.030;2023-04-28T01:40:22;19.70;;;17.60;;
38637;SDS011;24401;53.034;-3.030;2023-04-28T01:42:52;28.60;;;16.73;;
38637;SDS011;24401;53.034;-3.030;2023-04-28T01:45:24;20.30;;;17.03;;
38637;SDS011;24401;53.034;-3.030;2023-04-28T01:47:54;19.73;;;16.45;;
38637;SDS011;24401;53.034;-3.030;2023-04-28T01:50:25;17.83;;;16.03;;
38637;SDS011;24401;53.034;-3.030;2023-04-28T01:52:55;22.30;;;17.13;;
38637;SDS011;24401;53.034;-3.030;2023-04-28T01:55:25;23.33;;;17.97;;
38637;SDS011;24401;53.034;-3.030;2023-04-28T01:57:55;21.67;;;17.70;;
38637;SDS011;24401;53.034;-3.030;2023-04-28T02:00:27;19.88;;;17.65;;
38637;SDS011;24401;53.034;-3.030;2023-04-28T02:02:57;20.40;;;17.20;;
38637;SDS011;24401;53.034;-3.030;2023-04-28T02:05:27;19.63;;;17.63;;
38637;SDS011;24401;53.034;-3.030;2023-04-28T02:07:57;24.80;;;17.43;;
38637;SDS011;24401;53.034;-3.030;2023-04-28T02:10:28;19.90;;;16.80;;
38637;SDS011;24401;53.034;-3.030;2023-04-28T02:12:58;20.80;;;16.60;;
38637;SDS011;24401;53.034;-3.030;2023-04-28T02:15:28;19.53;;;17.63;;
38637;SDS011;24401;53.034;-3.030;2023-04-28T02:17:59;17.97;;;16.17;;
38637;SDS011;24401;53.034;-3.030;2023-04-28T02:20:29;22.27;;;18.17;;
38637;SDS011;24401;53.034;-3.030;2023-04-28T02:23:00;18.20;;;16.50;;
38637;SDS011;24401;53.034;-3.030;2023-04-28T02:25:30;23.60;;;15.67;;
38637;SDS011;24401;53.034;-3.030;2023-04-28T02:28:00;18.47;;;16.60;;
38637;SDS011;24401;53.034;-3.030;2023-04-28T02:30:31;17.53;;;15.93;;
38637;SDS011;24401;53.034;-3.030;2023-04-28T02:33:01;17.73;;;16.03;;
38637;SDS011;24401;53.034;-3.030;2023-04-28T02:35:31;19.83;;;16.77;;
38637;SDS011;24401;53.034;-3.030;2023-04-28T02:38:02;19.40;;;17.00;;
38637;SDS011;24401;53.034;-3.030;2023-04-28T02:40:32;21.57;;;18.10;;
38637;SDS011;24401;53.034;-3.030;2023-04-28T02:43:02;22.97;;;18.73;;
38637;SDS011;24401;53.034;-3.030;2023-04-28T02:45:32;27.33;;;18.20;;
38637;SDS011;24401;53.034;-3.030;2023-04-28T02:48:03;20.90;;;16.97;;
38637;SDS011;24401;53.034;-3.030;2023-04-28T02:50:33;19.03;;;17.03;;
38637;SDS011;24401;53.034;-3.030;2023-04-28T02:53:03;20.17;;;17.77;;
38637;SDS011;24401;53.034;-3.030;2023-04-28T02:55:34;19.13;;;17.17;;
38637;SDS011;24401;53.034;-3.030;2023-04-28T02:58:04;19.30;;;17.30;;
38637;SDS011;24401;53.034;-3.030;2023-04-28T03:00:34;23.40;;;17.30;;
38637;SDS011;24401;53.034;-3.030;2023-04-28T03:03:05;24.70;;;18.07;;
38637;SDS011;24401;53.034;-3.030;2023-04-28T03:05:35;23.07;;;16.80;;
38637;SDS011;24401;53.034;-3.030;2023-04-28T03:08:05;20.10;;;17.33;;
38637;SDS011;24401;53.034;-3.030;2023-04-28T03:10:35;21.23;;;18.07;;
38637;SDS011;24401;53.034;-3.030;2023-04-28T03:13:06;20.63;;;16.87;;
38637;SDS011;24401;53.034;-3.030;2023-04-28T03:15:36;21.23;;;18.97;;
38637;SDS011;24401;53.034;-3.030;2023-04-28T03:18:06;18.67;;;16.90;;
38637;SDS011;24401;53.034;-3.030;2023-04-28T03:20:37;21.07;;;15.70;;
38637;SDS011;24401;53.034;-3.030;2023-04-28T03:23:07;20.93;;;18.17;;
38637;SDS011;24401;53.034;-3.030;2023-04-28T03:25:37;18.97;;;17.13;;
38637;SDS011;24401;53.034;-3.030;2023-04-28T03:28:07;24.77;;;18.13;;
38637;SDS011;24401;53.034;-3.030;2023-04-28T03:33:09;25.00;;;16.63;;
38637;SDS011;24401;53.034;-3.030;2023-04-28T03:35:40;19.00;;;17.10;;
38637;SDS011;24401;53.034;-3.030;2023-04-28T03:38:10;22.03;;;18.90;;
38637;SDS011;24401;53.034;-3.030;2023-04-28T03:40:40;21.67;;;17.83;;
38637;SDS011;24401;53.034;-3.030;2023-04-28T03:43:11;22.97;;;19.03;;
38637;SDS011;24401;53.034;-3.030;2023-04-28T03:45:41;20.43;;;18.13;;
38637;SDS011;24401;53.034;-3.030;2023-04-28T03:48:11;19.77;;;17.80;;
38637;SDS011;24401;53.034;-3.030;2023-04-28T03:50:42;20.33;;;18.23;;
38637;SDS011;24401;53.034;-3.030;2023-04-28T03:53:14;20.83;;;18.25;;
38637;SDS011;24401;53.034;-3.030;2023-04-28T03:55:44;23.03;;;17.27;;
38637;SDS011;24401;53.034;-3.030;2023-04-28T03:58:15;21.13;;;17.83;;
38637;SDS011;24401;53.034;-3.030;2023-04-28T04:00:45;20.43;;;17.73;;
38637;SDS011;24401;53.034;-3.030;2023-04-28T04:03:16;20.60;;;17.90;;
38637;SDS011;24401;53.034;-3.030;2023-04-28T04:05:46;23.27;;;17.77;;
38637;SDS011;24401;53.034;-3.030;2023-04-28T04:08:16;23.83;;;18.73;;
38637;SDS011;24401;53.034;-3.030;2023-04-28T04:10:46;20.37;;;18.20;;
38637;SDS011;24401;53.034;-3.030;2023-04-28T04:13:16;20.20;;;17.93;;
38637;SDS011;24401;53.034;-3.030;2023-04-28T04:15:47;20.83;;;17.83;;
38637;SDS011;24401;53.034;-3.030;2023-04-28T04:18:18;24.10;;;18.13;;
38637;SDS011;24401;53.034;-3.030;2023-04-28T04:20:49;20.10;;;17.83;;
38637;SDS011;24401;53.034;-3.030;2023-04-28T04:23:19;20.43;;;17.17;;
38637;SDS011;24401;53.034;-3.030;2023-04-28T04:25:49;21.23;;;17.87;;
38637;SDS011;24401;53.034;-3.030;2023-04-28T04:28:20;21.63;;;16.30;;
38637;SDS011;24401;53.034;-3.030;2023-04-28T04:30:50;24.27;;;17.87;;
38637;SDS011;24401;53.034;-3.030;2023-04-28T04:33:20;25.70;;;17.70;;
38637;SDS011;24401;53.034;-3.030;2023-04-28T04:35:50;25.83;;;17.80;;
38637;SDS011;24401;53.034;-3.030;2023-04-28T04:38:21;21.13;;;16.97;;
38637;SDS011;24401;53.034;-3.030;2023-04-28T04:40:51;25.83;;;17.07;;
38637;SDS011;24401;53.034;-3.030;2023-04-28T04:43:21;18.43;;;16.43;;
38637;SDS011;24401;53.034;-3.030;2023-04-28T04:45:52;18.37;;;16.40;;
38637;SDS011;24401;53.034;-3.030;2023-04-28T04:48:23;18.47;;;16.40;;
38637;SDS011;24401;53.034;-3.030;2023-04-28T04:50:53;20.23;;;17.07;;
38637;SDS011;24401;53.034;-3.030;2023-04-28T04:53:23;21.60;;;17.30;;
38637;SDS011;24401;53.034;-3.030;2023-04-28T04:55:53;20.83;;;16.67;;
38637;SDS011;24401;53.034;-3.030;2023-04-28T04:58:23;21.57;;;17.20;;
38637;SDS011;24401;53.034;-3.030;2023-04-28T05:00:54;19.77;;;17.83;;
38637;SDS011;24401;53.034;-3.030;2023-04-28T05:03:24;21.87;;;18.20;;
38637;SDS011;24401;53.034;-3.030;2023-04-28T05:05:55;22.13;;;17.33;;
38637;SDS011;24401;53.034;-3.030;2023-04-28T05:08:25;22.87;;;16.83;;
38637;SDS011;24401;53.034;-3.030;2023-04-28T05:10:55;23.37;;;17.50;;
38637;SDS011;24401;53.034;-3.030;2023-04-28T05:13:26;21.30;;;16.50;;
38637;SDS011;24401;53.034;-3.030;2023-04-28T05:15:56;22.07;;;17.53;;
38637;SDS011;24401;53.034;-3.030;2023-04-28T05:18:27;22.10;;;16.40;;
38637;SDS011;24401;53.034;-3.030;2023-04-28T05:20:57;24.33;;;16.90;;
38637;SDS011;24401;53.034;-3.030;2023-04-28T05:23:27;27.50;;;17.37;;
38637;SDS011;24401;53.034;-3.030;2023-04-28T05:25:57;19.60;;;16.43;;
38637;SDS011;24401;53.034;-3.030;2023-04-28T05:28:27;29.07;;;17.50;;
38637;SDS011;24401;53.034;-3.030;2023-04-28T05:30:58;25.30;;;17.20;;
38637;SDS011;24401;53.034;-3.030;2023-04-28T05:33:28;23.57;;;16.90;;
38637;SDS011;24401;53.034;-3.030;2023-04-28T05:35:58;27.80;;;17.40;;
38637;SDS011;24401;53.034;-3.030;2023-04-28T05:38:28;28.73;;;18.27;;
38637;SDS011;24401;53.034;-3.030;2023-04-28T05:41:00;25.35;;;17.88;;
38637;SDS011;24401;53.034;-3.030;2023-04-28T05:43:31;27.77;;;17.37;;
38637;SDS011;24401;53.034;-3.030;2023-04-28T05:46:01;23.17;;;18.00;;
38637;SDS011;24401;53.034;-3.030;2023-04-28T05:48:31;29.43;;;17.83;;
38637;SDS011;24401;53.034;-3.030;2023-04-28T05:51:02;23.47;;;17.27;;
38637;SDS011;24401;53.034;-3.030;2023-04-28T05:53:32;31.17;;;17.60;;
38637;SDS011;24401;53.034;-3.030;2023-04-28T05:56:02;30.13;;;18.67;;
38637;SDS011;24401;53.034;-3.030;2023-04-28T05:58:33;35.33;;;19.17;;
38637;SDS011;24401;53.034;-3.030;2023-04-28T06:01:03;32.93;;;18.63;;
38637;SDS011;24401;53.034;-3.030;2023-04-28T06:03:34;29.20;;;20.47;;
38637;SDS011;24401;53.034;-3.030;2023-04-28T06:06:04;33.00;;;19.70;;
38637;SDS011;24401;53.034;-3.030;2023-04-28T06:08:35;30.80;;;18.70;;
38637;SDS011;24401;53.034;-3.030;2023-04-28T06:11:05;27.27;;;18.90;;
38637;SDS011;24401;53.034;-3.030;2023-04-28T06:13:36;27.60;;;18.27;;
38637;SDS011;24401;53.034;-3.030;2023-04-28T06:16:06;34.30;;;18.83;;
38637;SDS011;24401;53.034;-3.030;2023-04-28T06:18:37;31.10;;;19.23;;
38637;SDS011;24401;53.034;-3.030;2023-04-28T06:21:07;40.27;;;18.97;;
38637;SDS011;24401;53.034;-3.030;2023-04-28T06:23:37;31.40;;;18.03;;
38637;SDS011;24401;53.034;-3.030;2023-04-28T06:28:39;31.63;;;18.60;;
38637;SDS011;24401;53.034;-3.030;2023-04-28T06:31:10;30.83;;;19.90;;
38637;SDS011;24401;53.034;-3.030;2023-04-28T06:33:40;30.93;;;19.70;;
38637;SDS011;24401;53.034;-3.030;2023-04-28T06:36:10;35.77;;;19.40;;
38637;SDS011;24401;53.034;-3.030;2023-04-28T06:38:43;36.53;;;19.00;;
38637;SDS011;24401;53.034;-3.030;2023-04-28T06:41:13;35.77;;;18.23;;
38637;SDS011;24401;53.034;-3.030;2023-04-28T06:43:43;39.87;;;19.90;;
38637;SDS011;24401;53.034;-3.030;2023-04-28T06:46:14;29.83;;;17.63;;
38637;SDS011;24401;53.034;-3.030;2023-04-28T06:48:44;33.07;;;19.43;;
38637;SDS011;24401;53.034;-3.030;2023-04-28T06:51:15;33.07;;;18.77;;
38637;SDS011;24401;53.034;-3.030;2023-04-28T06:53:45;41.10;;;18.53;;
38637;SDS011;24401;53.034;-3.030;2023-04-28T06:56:16;30.87;;;18.20;;
38637;SDS011;24401;53.034;-3.030;2023-04-28T06:58:47;32.65;;;19.75;;
38637;SDS011;24401;53.034;-3.030;2023-04-28T07:01:17;28.63;;;17.10;;
38637;SDS011;24401;53.034;-3.030;2023-04-28T07:03:48;34.13;;;17.93;;
38637;SDS011;24401;53.034;-3.030;2023-04-28T07:06:18;34.03;;;18.60;;
38637;SDS011;24401;53.034;-3.030;2023-04-28T07:08:49;31.07;;;18.97;;
38637;SDS011;24401;53.034;-3.030;2023-04-28T07:11:20;29.20;;;17.13;;
38637;SDS011;24401;53.034;-3.030;2023-04-28T07:13:52;26.15;;;17.20;;
38637;SDS011;24401;53.034;-3.030;2023-04-28T07:16:22;23.80;;;16.70;;
38637;SDS011;24401;53.034;-3.030;2023-04-28T07:18:52;30.23;;;18.33;;
38637;SDS011;24401;53.034;-3.030;2023-04-28T07:21:23;26.83;;;17.57;;
38637;SDS011;24401;53.034;-3.030;2023-04-28T07:23:53;27.50;;;17.17;;
38637;SDS011;24401;53.034;-3.030;2023-04-28T07:26:26;23.75;;;16.00;;
38637;SDS011;24401;53.034;-3.030;2023-04-28T07:28:56;23.50;;;16.23;;
38637;SDS011;24401;53.034;-3.030;2023-04-28T07:31:27;16.83;;;15.00;;
38637;SDS011;24401;53.034;-3.030;2023-04-28T07:33:57;23.13;;;16.07;;
38637;SDS011;24401;53.034;-3.030;2023-04-28T07:36:28;24.63;;;15.73;;
38637;SDS011;24401;53.034;-3.030;2023-04-28T07:38:59;16.80;;;14.20;;
38637;SDS011;24401;53.034;-3.030;2023-04-28T07:41:30;19.05;;;14.23;;
38637;SDS011;24401;53.034;-3.030;2023-04-28T07:44:04;13.20;;;11.88;;
38637;SDS011;24401;53.034;-3.030;2023-04-28T07:46:35;15.07;;;11.67;;
38637;SDS011;24401;53.034;-3.030;2023-04-28T07:49:05;12.93;;;11.83;;
38637;SDS011;24401;53.034;-3.030;2023-04-28T07:51:37;12.93;;;11.70;;
38637;SDS011;24401;53.034;-3.030;2023-04-28T07:54:07;15.63;;;11.53;;
38637;SDS011;24401;53.034;-3.030;2023-04-28T07:56:37;19.30;;;13.63;;
38637;SDS011;24401;53.034;-3.030;2023-04-28T07:59:08;17.63;;;13.17;;
38637;SDS011;24401;53.034;-3.030;2023-04-28T08:01:38;13.97;;;12.10;;
38637;SDS011;24401;53.034;-3.030;2023-04-28T08:04:08;22.80;;;11.40;;
38637;SDS011;24401;53.034;-3.030;2023-04-28T08:06:40;14.80;;;13.07;;
38637;SDS011;24401;53.034;-3.030;2023-04-28T08:09:10;13.10;;;11.90;;
38637;SDS011;24401;53.034;-3.030;2023-04-28T08:11:40;15.37;;;13.97;;
38637;SDS011;24401;53.034;-3.030;2023-04-28T08:14:11;19.53;;;13.40;;
38637;SDS011;24401;53.034;-3.030;2023-04-28T08:16:41;15.43;;;13.70;;
38637;SDS011;24401;53.034;-3.030;2023-04-28T08:19:12;16.87;;;14.87;;
38637;SDS011;24401;53.034;-3.030;2023-04-28T08:21:43;18.17;;;14.57;;
38637;SDS011;24401;53.034;-3.030;2023-04-28T08:24:13;15.90;;;14.40;;
38637;SDS011;24401;53.034;-3.030;2023-04-28T08:26:43;15.43;;;13.87;;
38637;SDS011;24401;53.034;-3.030;2023-04-28T08:29:14;15.27;;;13.70;;
38637;SDS011;24401;53.034;-3.030;2023-04-28T08:31:44;15.40;;;13.73;;
38637;SDS011;24401;53.034;-3.030;2023-04-28T08:34:14;16.30;;;14.90;;
38637;SDS011;24401;53.034;-3.030;2023-04-28T08:36:44;20.57;;;15.33;;
38637;SDS011;24401;53.034;-3.030;2023-04-28T08:39:15;15.97;;;14.10;;
38637;SDS011;24401;53.034;-3.030;2023-04-28T08:41:45;15.07;;;13.67;;
38637;SDS011;24401;53.034;-3.030;2023-04-28T08:44:15;16.00;;;13.43;;
38637;SDS011;24401;53.034;-3.030;2023-04-28T08:46:46;15.67;;;13.80;;
38637;SDS011;24401;53.034;-3.030;2023-04-28T08:49:18;14.77;;;13.10;;
38637;SDS011;24401;53.034;-3.030;2023-04-28T08:51:55;15.68;;;12.73;;
38637;SDS011;24401;53.034;-3.030;2023-04-28T08:54:27;18.48;;;13.73;;
38637;SDS011;24401;53.034;-3.030;2023-04-28T08:56:59;15.25;;;13.15;;
38637;SDS011;24401;53.034;-3.030;2023-04-28T08:59:30;14.63;;;13.33;;
38637;SDS011;24401;53.034;-3.030;2023-04-28T09:02:00;14.33;;;12.97;;
38637;SDS011;24401;53.034;-3.030;2023-04-28T09:04:30;13.37;;;12.20;;
38637;SDS011;24401;53.034;-3.030;2023-04-28T09:07:01;14.70;;;13.27;;
38637;SDS011;24401;53.034;-3.030;2023-04-28T09:09:31;14.67;;;13.33;;
38637;SDS011;24401;53.034;-3.030;2023-04-28T09:12:02;13.87;;;12.67;;
38637;SDS011;24401;53.034;-3.030;2023-04-28T09:14:33;16.15;;;12.23;;
38637;SDS011;24401;53.034;-3.030;2023-04-28T09:17:10;17.08;;;12.98;;
38637;SDS011;24401;53.034;-3.030;2023-04-28T09:19:45;14.33;;;12.83;;
38637;SDS011;24401;53.034;-3.030;2023-04-28T09:22:15;15.40;;;13.90;;
38637;SDS011;24401;53.034;-3.030;2023-04-28T09:24:46;12.97;;;11.73;;
38637;SDS011;24401;53.034;-3.030;2023-04-28T09:27:16;12.77;;;11.57;;
38637;SDS011;24401;53.034;-3.030;2023-04-28T09:29:55;15.35;;;12.80;;
38637;SDS011;24401;53.034;-3.030;2023-04-28T09:32:25;13.57;;;12.13;;
38637;SDS011;24401;53.034;-3.030;2023-04-28T09:34:56;12.77;;;11.57;;
38637;SDS011;24401;53.034;-3.030;2023-04-28T09:37:27;10.97;;;10.07;;
38637;SDS011;24401;53.034;-3.030;2023-04-28T09:42:40;11.60;;;9.18;;
38637;SDS011;24401;53.034;-3.030;2023-04-28T09:45:11;10.20;;;9.30;;
38637;SDS011;24401;53.034;-3.030;2023-04-28T09:47:43;11.43;;;10.32;;
38637;SDS011;24401;53.034;-3.030;2023-04-28T09:50:15;12.20;;;11.05;;
38637;SDS011;24401;53.034;-3.030;2023-04-28T09:52:54;10.40;;;9.53;;
38637;SDS011;24401;53.034;-3.030;2023-04-28T09:55:26;12.63;;;11.63;;
38637;SDS011;24401;53.034;-3.030;2023-04-28T09:57:57;10.55;;;9.57;;
38637;SDS011;24401;53.034;-3.030;2023-04-28T10:00:32;11.48;;;9.05;;
38637;SDS011;24401;53.034;-3.030;2023-04-28T10:03:02;14.60;;;13.15;;
38637;SDS011;24401;53.034;-3.030;2023-04-28T10:05:33;14.60;;;13.23;;
38637;SDS011;24401;53.034;-3.030;2023-04-28T10:08:04;16.02;;;14.55;;
38637;SDS011;24401;53.034;-3.030;2023-04-28T10:10:34;16.43;;;14.83;;
38637;SDS011;24401;53.034;-3.030;2023-04-28T10:13:06;14.80;;;13.23;;
38637;SDS011;24401;53.034;-3.030;2023-04-28T10:15:37;13.80;;;12.65;;
38637;SDS011;24401;53.034;-3.030;2023-04-28T10:18:08;16.10;;;14.57;;
38637;SDS011;24401;53.034;-3.030;2023-04-28T10:20:38;12.80;;;11.63;;
38637;SDS011;24401;53.034;-3.030;2023-04-28T10:25:38;11.40;;;10.50;;
38637;SDS011;24401;53.034;-3.030;2023-04-28T10:28:11;11.77;;;10.77;;
38637;SDS011;24401;53.034;-3.030;2023-04-28T10:30:41;12.83;;;11.67;;
38637;SDS011;24401;53.034;-3.030;2023-04-28T10:38:12;11.70;;;10.70;;
38637;SDS011;24401;53.034;-3.030;2023-04-28T10:40:44;11.68;;;10.70;;
38637;SDS011;24401;53.034;-3.030;2023-04-28T10:43:33;11.68;;;10.68;;
38637;SDS011;24401;53.034;-3.030;2023-04-28T10:46:06;11.75;;;10.75;;
38637;SDS011;24401;53.034;-3.030;2023-04-28T10:56:23;10.10;;;9.10;;
38637;SDS011;24401;53.034;-3.030;2023-04-28T10:58:58;10.43;;;9.52;;
38637;SDS011;24401;53.034;-3.030;2023-04-28T11:01:29;10.27;;;9.35;;
38637;SDS011;24401;53.034;-3.030;2023-04-28T11:06:37;9.48;;;8.70;;
38637;SDS011;24401;53.034;-3.030;2023-04-28T11:14:39;10.00;;;9.20;;
38637;SDS011;24401;53.034;-3.030;2023-04-28T11:17:10;9.93;;;9.03;;
38637;SDS011;24401;53.034;-3.030;2023-04-28T11:19:43;9.05;;;8.25;;
38637;SDS011;24401;53.034;-3.030;2023-04-28T11:22:17;9.55;;;8.75;;
38637;SDS011;24401;53.034;-3.030;2023-04-28T11:24:55;9.52;;;8.63;;
38637;SDS011;24401;53.034;-3.030;2023-04-28T11:27:29;9.90;;;8.90;;
38637;SDS011;24401;53.034;-3.030;2023-04-28T11:29:59;14.65;;;8.88;;
38637;SDS011;24401;53.034;-3.030;2023-04-28T11:32:33;10.00;;;9.10;;
38637;SDS011;24401;53.034;-3.030;2023-04-28T11:35:04;9.30;;;8.50;;
38637;SDS011;24401;53.034;-3.030;2023-04-28T11:37:38;7.97;;;7.28;;
38637;SDS011;24401;53.034;-3.030;2023-04-28T11:40:09;8.73;;;7.90;;
38637;SDS011;24401;53.034;-3.030;2023-04-28T11:42:46;9.18;;;8.23;;
38637;SDS011;24401;53.034;-3.030;2023-04-28T11:45:17;8.40;;;7.60;;
38637;SDS011;24401;53.034;-3.030;2023-04-28T11:47:47;8.63;;;7.93;;
38637;SDS011;24401;53.034;-3.030;2023-04-28T11:50:34;8.90;;;8.13;;
38637;SDS011;24401;53.034;-3.030;2023-04-28T11:53:04;10.85;;;8.38;;
38637;SDS011;24401;53.034;-3.030;2023-04-28T11:55:34;9.13;;;8.43;;
38637;SDS011;24401;53.034;-3.030;2023-04-28T11:58:19;9.83;;;7.87;;
38637;SDS011;24401;53.034;-3.030;2023-04-28T12:01:10;8.50;;;7.80;;
38637;SDS011;24401;53.034;-3.030;2023-04-28T12:03:42;9.80;;;8.90;;
38637;SDS011;24401;53.034;-3.030;2023-04-28T12:06:16;9.25;;;8.38;;
38637;SDS011;24401;53.034;-3.030;2023-04-28T12:08:48;9.50;;;8.75;;
38637;SDS011;24401;53.034;-3.030;2023-04-28T12:11:18;9.37;;;8.53;;
38637;SDS011;24401;53.034;-3.030;2023-04-28T12:14:03;11.50;;;8.77;;
38637;SDS011;24401;53.034;-3.030;2023-04-28T12:16:37;7.82;;;7.20;;
38637;SDS011;24401;53.034;-3.030;2023-04-28T12:19:09;8.77;;;6.93;;
38637;SDS011;24401;53.034;-3.030;2023-04-28T12:21:40;8.02;;;7.40;;
38637;SDS011;24401;53.034;-3.030;2023-04-28T12:24:18;7.60;;;6.57;;
38637;SDS011;24401;53.034;-3.030;2023-04-28T12:26:48;6.20;;;5.80;;
38637;SDS011;24401;53.034;-3.030;2023-04-28T12:32:08;7.30;;;6.72;;
38637;SDS011;24401;53.034;-3.030;2023-04-28T12:34:39;7.05;;;6.55;;
38637;SDS011;24401;53.034;-3.030;2023-04-28T12:37:10;7.30;;;6.60;;
38637;SDS011;24401;53.034;-3.030;2023-04-28T12:39:41;6.95;;;6.35;;
38637;SDS011;24401;53.034;-3.030;2023-04-28T12:42:11;8.77;;;5.00;;
38637;SDS011;24401;53.034;-3.030;2023-04-28T12:44:41;5.57;;;5.17;;
38637;SDS011;24401;53.034;-3.030;2023-04-28T12:47:11;6.13;;;4.47;;
38637;SDS011;24401;53.034;-3.030;2023-04-28T12:49:42;4.03;;;3.73;;
38637;SDS011;24401;53.034;-3.030;2023-04-28T12:52:12;4.43;;;4.03;;
38637;SDS011;24401;53.034;-3.030;2023-04-28T12:54:42;4.77;;;4.47;;
38637;SDS011;24401;53.034;-3.030;2023-04-28T12:57:16;3.72;;;3.42;;
38637;SDS011;24401;53.034;-3.030;2023-04-28T12:59:47;5.60;;;5.20;;
38637;SDS011;24401;53.034;-3.030;2023-04-28T13:02:17;5.77;;;4.03;;
38637;SDS011;24401;53.034;-3.030;2023-04-28T13:04:48;4.40;;;4.10;;
38637;SDS011;24401;53.034;-3.030;2023-04-28T13:07:18;5.67;;;5.27;;
38637;SDS011;24401;53.034;-3.030;2023-04-28T13:09:48;6.60;;;6.10;;
38637;SDS011;24401;53.034;-3.030;2023-04-28T13:12:18;6.33;;;5.83;;
38637;SDS011;24401;53.034;-3.030;2023-04-28T13:14:49;6.17;;;5.67;;
38637;SDS011;24401;53.034;-3.030;2023-04-28T13:17:20;5.70;;;5.10;;
38637;SDS011;24401;53.034;-3.030;2023-04-28T13:19:50;5.00;;;4.60;;
38637;SDS011;24401;53.034;-3.030;2023-04-28T13:22:20;5.37;;;4.93;;
38637;SDS011;24401;53.034;-3.030;2023-04-28T13:24:51;5.83;;;5.33;;
38637;SDS011;24401;53.034;-3.030;2023-04-28T13:27:21;5.60;;;5.20;;
38637;SDS011;24401;53.034;-3.030;2023-04-28T13:29:51;4.93;;;4.53;;
38637;SDS011;24401;53.034;-3.030;2023-04-28T13:32:22;5.23;;;4.83;;
38637;SDS011;24401;53.034;-3.030;2023-04-28T13:34:52;4.13;;;3.83;;
38637;SDS011;24401;53.034;-3.030;2023-04-28T13:37:22;3.70;;;3.40;;
38637;SDS011;24401;53.034;-3.030;2023-04-28T13:39:52;4.27;;;3.97;;
38637;SDS011;24401;53.034;-3.030;2023-04-28T13:42:23;3.80;;;3.50;;
38637;SDS011;24401;53.034;-3.030;2023-04-28T13:44:53;3.80;;;3.30;;
38637;SDS011;24401;53.034;-3.030;2023-04-28T13:47:23;4.37;;;2.83;;
38637;SDS011;24401;53.034;-3.030;2023-04-28T13:49:54;3.15;;;2.78;;
38637;SDS011;24401;53.034;-3.030;2023-04-28T13:52:25;3.10;;;2.90;;
38637;SDS011;24401;53.034;-3.030;2023-04-28T13:54:55;2.90;;;2.70;;
38637;SDS011;24401;53.034;-3.030;2023-04-28T13:57:25;2.90;;;2.70;;
38637;SDS011;24401;53.034;-3.030;2023-04-28T13:59:56;3.43;;;3.13;;
38637;SDS011;24401;53.034;-3.030;2023-04-28T14:02:26;3.20;;;3.00;;
38637;SDS011;24401;53.034;-3.030;2023-04-28T14:04:56;2.83;;;2.63;;
38637;SDS011;24401;53.034;-3.030;2023-04-28T14:07:26;3.47;;;3.17;;
38637;SDS011;24401;53.034;-3.030;2023-04-28T14:09:57;3.00;;;2.80;;
38637;SDS011;24401;53.034;-3.030;2023-04-28T14:12:27;3.10;;;2.90;;
38637;SDS011;24401;53.034;-3.030;2023-04-28T14:14:57;5.53;;;4.60;;
38637;SDS011;24401;53.034;-3.030;2023-04-28T14:17:28;3.53;;;3.30;;
38637;SDS011;24401;53.034;-3.030;2023-04-28T14:20:02;4.83;;;4.43;;
38637;SDS011;24401;53.034;-3.030;2023-04-28T14:22:32;6.00;;;5.25;;
38637;SDS011;24401;53.034;-3.030;2023-04-28T14:25:02;9.57;;;6.20;;
38637;SDS011;24401;53.034;-3.030;2023-04-28T14:27:33;5.53;;;5.03;;
38637;SDS011;24401;53.034;-3.030;2023-04-28T14:30:03;4.67;;;4.37;;
38637;SDS011;24401;53.034;-3.030;2023-04-28T14:32:34;3.85;;;3.55;;
38637;SDS011;24401;53.034;-3.030;2023-04-28T14:35:04;3.93;;;3.67;;
38637;SDS011;24401;53.034;-3.030;2023-04-28T14:37:35;4.88;;;4.57;;
38637;SDS011;24401;53.034;-3.030;2023-04-28T14:40:05;5.13;;;4.73;;
38637;SDS011;24401;53.034;-3.030;2023-04-28T14:42:36;4.38;;;4.07;;
38637;SDS011;24401;53.034;-3.030;2023-04-28T14:45:07;4.63;;;4.30;;
38637;SDS011;24401;53.034;-3.030;2023-04-28T14:50:08;4.93;;;4.53;;
38637;SDS011;24401;53.034;-3.030;2023-04-28T14:52:38;4.60;;;4.30;;
38637;SDS011;24401;53.034;-3.030;2023-04-28T14:55:09;4.57;;;4.28;;
38637;SDS011;24401;53.034;-3.030;2023-04-28T14:57:39;3.80;;;3.60;;
38637;SDS011;24401;53.034;-3.030;2023-04-28T15:00:10;3.97;;;3.67;;
38637;SDS011;24401;53.034;-3.030;2023-04-28T15:02:40;4.28;;;3.97;;
38637;SDS011;24401;53.034;-3.030;2023-04-28T15:05:10;4.17;;;3.87;;
38637;SDS011;24401;53.034;-3.030;2023-04-28T15:07:41;4.15;;;3.85;;
38637;SDS011;24401;53.034;-3.030;2023-04-28T15:10:11;3.53;;;3.33;;
38637;SDS011;24401;53.034;-3.030;2023-04-28T15:12:42;3.53;;;3.33;;